Aviation Forecast PDF Print E-mail

 met_logo

NATIONAL METEOROLOGICAL SERVICE OF BELIZE

Area Forecast for the Country of Belize


For the period from:

1200  01  SEPTEMBER  2014

to

2400  01  SEPTEMBER  2014

All Heights in the forecast are above sea level. PS= Positive, MS= Minus. All times are UTC.


A.

SPECIAL FEATURES of the METEOROLOGICAL SITUATION

 MOIST AND UNSTABLE CONDITIONS PERSIST OVER THE FORECAST AREA.

B.

HEIGHT (Ft)

WIND (True Degrees and Knots)

TEMPERATURE (°C)

Surface

12010

PS29-31

2,000

14515

PS24

5,000

16015

PS19

10,000

15020

PS08


C.

CLOUDS (Amount, Type, Ceiling and Top (optional))

 ISOL/FEW CB BASES 1,000-1,500FT.; TOPS NEAR 32,000FT. 

 SCT/BKN CUSC BASES 1,400-2,400FT.; TOPS 9,000-12,000FT.

 SCT/BKN SC BASES LAYERED 3,500-5,000FT.


D.

SURFACE VISIBILITY:   REDUCED TO 2-5KM IN TSRA / SHRA / RA AND 500M IN HILL FOG.;OTHERWISE GREATER THAN 10KM.


E.

WEATHER:  CLOUDY SKIES. A FEW SHOWERS PERIODS OF LIGHT TO MODERATE RAIN  AND ISOLATED THUNDERSTORMS(MOSTLY NORTH ). HILL FOG INLAND.

Remarks, Warnings, Turbulence

Barometric Changes

LOW CLOUDS COVERING HILLS

MOD/SEV TURB IN TCU/CB

DIURNAL

G.

OUTLOOK:

TO 1200 02 SEPT.-

CLOUDY.  A FEW SHRA /ISOL TSRA MOSTLY SOUTH. 

H.

TAF  MZBZ

010900Z 0112/0212 12010KT 9999 SCT022 SCT040 PROB40 TEMPO 0112/0123 5000 SHRA BKN014 BKN035=

I.

Meteorological Office:

BELIZE

Issued at:

1150 01 SEPTEMBER 2014

Forecaster:

Wellington